メインページ
METAR-TAF:

METAR-TAF

空港 :

ブリュッセル, ベルギー

ブリュッセル空港

緯度: 50-54N, 経度: 004-32E, 海抜: 55m

現時点の気象観測

当レポートは20分前の14:20(UTC)に作成
南/南西の風 7kt
気温 23°C
湿度 53%
気圧 1009 hPa
視程10km以上
高度4400ftの雲は散在している

METAR: EBBR 261420Z 21007KT 9999 SCT044 23/13 Q1009 NOSIG

時間: 16:40 (14:40 UTC)

予報

当レポートは3時間38分前の11:02(UTC)に作成
予報は26日の 12時(UTC)から 27日の 18時(UTC)まで有効
南西の風 9kt
視程10km以上
高度3000ftの雲は散在している
26日の 19時(UTC)から 27日の 01時(UTC)まで一時的に
高度900ftの雲は散在している
高度1400ftの千切れ雲あり
確率 30%
26日の 22時(UTC)から 27日の 01時(UTC)まで
間 40から00 UTC一時的に
高度700ftの千切れ雲あり
小雨, 霧雨

TAF: EBBR 261102Z 2612/2718 23009KT 9999 SCT030 TEMPO 2619/2701 SCT009 BKN014 PROB30 2622/2701 TEMPO 4000 -RADZ BKN007

4,000以上の空港の気象観測と天気予報(METAR報とTAF報)

利用可能な観測所は地図上に黄色い丸と赤い丸で示す。

丸の上にカーソルを重ねると観測所名を参照できる。

次にクリックすると気象観測と天気予報を参照できる。

マップの切り替え:黒色「×」印の緑ボタンをクリックして拡大、「-」印の緑ボタンをクリックして縮小、緑色の三角印をクリックして隣りの地図に切り替え


METAR-TAF: